createdAt,value
2018-03-26T00:01:12.663Z,0.40
2018-03-26T00:03:39.047Z,0.40
2018-03-26T00:06:06.209Z,0.60
2018-03-26T00:08:32.757Z,0.60
2018-03-26T00:10:59.168Z,0.50
2018-03-26T00:13:26.337Z,0.60
2018-03-26T00:15:52.740Z,0.60
2018-03-26T00:18:19.871Z,0.60
2018-03-26T00:20:46.293Z,0.60
2018-03-26T00:23:12.671Z,0.50
2018-03-26T00:25:39.052Z,0.50
2018-03-26T00:28:05.716Z,0.50
2018-03-26T00:30:32.093Z,0.50
2018-03-26T00:32:58.532Z,0.50
2018-03-26T00:35:24.914Z,0.40
2018-03-26T00:37:52.071Z,0.40
2018-03-26T00:40:19.224Z,0.30
2018-03-26T00:42:46.371Z,0.10
2018-03-26T00:45:13.515Z,0.00
2018-03-26T00:47:40.647Z,-0.10
2018-03-26T00:50:07.053Z,-0.10
2018-03-26T00:52:33.528Z,-0.10
2018-03-26T00:55:00.660Z,-0.10
2018-03-26T00:57:27.079Z,-0.10
2018-03-26T00:59:53.489Z,0.00
2018-03-26T01:02:19.905Z,0.10
2018-03-26T01:04:46.312Z,0.10
2018-03-26T01:07:13.441Z,0.10
2018-03-26T01:09:39.835Z,0.10
2018-03-26T01:12:06.229Z,0.10
2018-03-26T01:14:33.366Z,0.00
2018-03-26T01:16:59.751Z,0.00
2018-03-26T01:19:26.268Z,0.00
2018-03-26T01:21:52.678Z,0.10
2018-03-26T01:24:19.807Z,-0.10
2018-03-26T01:26:46.186Z,-0.10
2018-03-26T01:29:12.594Z,-0.10
2018-03-26T01:31:39.715Z,0.00
2018-03-26T01:34:06.115Z,0.00
2018-03-26T01:36:32.499Z,-0.10
2018-03-26T01:38:59.633Z,-0.50
2018-03-26T01:41:26.013Z,-0.50
2018-03-26T01:43:52.388Z,-0.60
2018-03-26T01:46:18.786Z,-0.50
2018-03-26T01:48:45.172Z,-0.50
2018-03-26T01:51:12.318Z,-0.50
2018-03-26T01:53:39.452Z,-0.40
2018-03-26T01:56:05.846Z,-0.30
2018-03-26T01:58:32.361Z,-0.20
2018-03-26T02:00:58.768Z,-0.20
2018-03-26T02:03:25.900Z,-0.20
2018-03-26T02:05:52.327Z,-0.20
2018-03-26T02:08:18.734Z,-0.10
2018-03-26T02:10:45.114Z,-0.10
2018-03-26T02:13:12.283Z,-0.30
2018-03-26T02:15:38.694Z,-0.30
2018-03-26T02:18:05.880Z,-0.30
2018-03-26T02:20:32.275Z,-0.30
2018-03-26T02:22:58.679Z,-0.30
2018-03-26T02:25:25.059Z,-0.50
2018-03-26T02:27:51.772Z,-0.60
2018-03-26T02:30:18.165Z,-0.70
2018-03-26T02:32:44.545Z,-0.90
2018-03-26T02:35:11.679Z,-1.10
2018-03-26T02:37:38.080Z,-1.10
2018-03-26T02:40:04.514Z,-1.10
2018-03-26T02:42:30.905Z,-1.20
2018-03-26T02:44:57.297Z,-1.20
2018-03-26T02:47:23.686Z,-1.20
2018-03-26T02:49:50.082Z,-1.20
2018-03-26T02:52:16.477Z,-1.10
2018-03-26T02:54:42.852Z,-1.20
2018-03-26T02:57:09.982Z,-1.20
2018-03-26T02:59:36.450Z,-1.20
2018-03-26T03:02:03.618Z,-1.20
2018-03-26T03:04:30.016Z,-1.20
2018-03-26T03:06:57.157Z,-1.20
2018-03-26T03:09:23.588Z,-1.20
2018-03-26T03:11:49.989Z,-1.20
2018-03-26T03:14:16.366Z,-1.30
2018-03-26T03:16:43.481Z,-1.40
2018-03-26T03:19:09.872Z,-1.40
2018-03-26T03:21:36.281Z,-1.40
2018-03-26T03:24:03.452Z,-1.40
2018-03-26T03:26:29.851Z,-1.40
2018-03-26T03:28:56.226Z,-1.50
2018-03-26T03:31:22.623Z,-1.60
2018-03-26T03:33:49.749Z,-1.70
2018-03-26T03:36:16.128Z,-1.70
2018-03-26T03:38:42.508Z,-1.60
2018-03-26T03:41:08.921Z,-1.80
2018-03-26T03:43:35.304Z,-1.70
2018-03-26T03:46:02.476Z,-1.50
2018-03-26T03:48:28.868Z,-1.50
2018-03-26T03:50:55.311Z,-1.50
2018-03-26T03:53:21.874Z,-1.40
2018-03-26T03:55:48.244Z,-1.50
2018-03-26T03:58:14.620Z,-1.40
2018-03-26T04:00:41.754Z,-1.40
2018-03-26T04:03:08.864Z,-1.40
2018-03-26T04:05:35.238Z,-1.40
2018-03-26T04:08:01.648Z,-1.50
2018-03-26T04:10:28.038Z,-1.50
2018-03-26T04:12:54.407Z,-1.50
2018-03-26T04:15:20.806Z,-1.60
2018-03-26T04:17:47.197Z,-1.70
2018-03-26T04:20:17.657Z,-1.70
2018-03-26T04:22:44.050Z,-1.70
2018-03-26T04:25:11.961Z,-1.70
2018-03-26T04:27:38.359Z,-1.70
2018-03-26T04:30:05.545Z,-1.70
2018-03-26T04:32:31.920Z,-1.70
2018-03-26T04:34:58.303Z,-1.80
2018-03-26T04:37:24.696Z,-1.80
2018-03-26T04:39:51.074Z,-1.70
2018-03-26T04:42:17.446Z,-1.70
2018-03-26T04:44:43.877Z,-1.70
2018-03-26T04:47:10.260Z,-1.70
2018-03-26T04:49:36.659Z,-1.60
2018-03-26T04:52:03.100Z,-1.50
2018-03-26T04:54:30.240Z,-1.40
2018-03-26T04:56:57.366Z,-1.40
2018-03-26T04:59:23.745Z,-1.40
2018-03-26T05:01:50.112Z,-1.30
2018-03-26T05:04:16.545Z,-1.20
2018-03-26T05:06:42.936Z,-1.00
2018-03-26T05:09:09.496Z,-0.90
2018-03-26T05:11:35.923Z,-0.70
2018-03-26T05:14:02.320Z,-0.80
2018-03-26T05:16:29.453Z,-0.70
2018-03-26T05:18:55.833Z,-0.70
2018-03-26T05:21:22.238Z,-0.70
2018-03-26T05:23:49.367Z,-0.50
2018-03-26T05:26:15.766Z,-0.60
2018-03-26T05:28:42.161Z,-0.40
2018-03-26T05:31:08.898Z,-0.30
2018-03-26T05:33:35.321Z,-0.30
2018-03-26T05:36:02.477Z,-0.30
2018-03-26T05:38:28.867Z,-0.30
2018-03-26T05:40:55.317Z,-0.10
2018-03-26T05:43:21.700Z,0.00
2018-03-26T05:45:48.100Z,0.20
2018-03-26T05:48:15.223Z,0.40
2018-03-26T05:50:41.655Z,0.40
2018-03-26T05:53:08.062Z,0.40
2018-03-26T05:55:34.525Z,0.60
2018-03-26T05:58:00.918Z,0.50
2018-03-26T06:00:27.299Z,0.60
2018-03-26T06:02:53.704Z,0.70
2018-03-26T06:05:20.104Z,0.80
2018-03-26T06:07:46.495Z,1.10
2018-03-26T06:10:13.715Z,1.50
2018-03-26T06:12:40.110Z,1.50
2018-03-26T06:15:06.487Z,1.80
2018-03-26T06:17:32.915Z,2.10
2018-03-26T06:19:59.360Z,2.00
2018-03-26T06:22:25.803Z,2.20
2018-03-26T06:24:52.284Z,2.10
2018-03-26T06:27:18.716Z,2.30
2018-03-26T06:29:45.168Z,2.30
2018-03-26T06:32:11.653Z,2.40
2018-03-26T06:34:38.789Z,2.30
2018-03-26T06:37:20.085Z,2.30
2018-03-26T06:39:47.215Z,1.10
2018-03-26T06:42:13.592Z,1.10
2018-03-26T06:44:39.989Z,1.20
2018-03-26T06:47:07.153Z,1.90
2018-03-26T06:49:34.283Z,2.60
2018-03-26T06:52:00.760Z,2.60
2018-03-26T06:54:27.158Z,3.30
2018-03-26T06:56:54.421Z,3.60
2018-03-26T06:59:21.569Z,4.00
2018-03-26T07:01:48.728Z,4.20
2018-03-26T07:04:15.177Z,4.20
2018-03-26T07:06:41.573Z,4.30
2018-03-26T07:09:08.721Z,4.80
2018-03-26T07:11:35.854Z,4.70
2018-03-26T07:14:02.296Z,4.70
2018-03-26T07:16:28.731Z,4.80
2018-03-26T07:18:55.895Z,4.70
2018-03-26T07:21:23.036Z,4.60
2018-03-26T07:23:50.176Z,4.70
2018-03-26T07:26:18.098Z,4.50
2018-03-26T07:28:44.502Z,4.50
2018-03-26T07:31:11.640Z,4.70
2018-03-26T07:33:38.767Z,4.50
2018-03-26T07:36:05.168Z,4.50
2018-03-26T07:38:31.578Z,4.60
2018-03-26T07:40:57.959Z,4.60
2018-03-26T07:43:24.368Z,4.60
2018-03-26T07:45:50.763Z,4.60
2018-03-26T07:48:17.163Z,4.50
2018-03-26T07:50:43.561Z,4.40
2018-03-26T07:53:09.976Z,4.40
2018-03-26T07:55:36.363Z,4.60
2018-03-26T07:58:02.787Z,4.60
2018-03-26T08:00:29.256Z,4.60
2018-03-26T08:02:56.390Z,4.60
2018-03-26T08:05:23.522Z,4.50
2018-03-26T08:07:49.920Z,4.50
2018-03-26T08:10:16.329Z,4.60
2018-03-26T08:12:42.712Z,4.70
2018-03-26T08:15:09.140Z,4.90
2018-03-26T08:17:35.561Z,4.90
2018-03-26T08:20:01.955Z,4.90
2018-03-26T08:22:29.078Z,4.90
2018-03-26T08:24:56.272Z,5.00
2018-03-26T08:27:22.663Z,5.00
2018-03-26T08:29:49.809Z,5.20
2018-03-26T08:32:16.928Z,5.10
2018-03-26T08:34:43.307Z,5.10
2018-03-26T08:37:10.447Z,4.90
2018-03-26T08:39:37.596Z,4.90
2018-03-26T08:42:04.743Z,5.10
2018-03-26T08:44:31.868Z,5.10
2018-03-26T08:46:58.289Z,5.10
2018-03-26T08:49:24.707Z,5.10
2018-03-26T08:51:51.096Z,5.40
2018-03-26T08:54:18.234Z,5.10
2018-03-26T08:56:45.353Z,5.40
2018-03-26T08:59:11.734Z,5.40
2018-03-26T09:01:38.855Z,5.40
2018-03-26T09:04:05.274Z,5.40
2018-03-26T09:06:31.806Z,5.60
2018-03-26T09:08:58.228Z,5.60
2018-03-26T09:11:24.610Z,5.50
2018-03-26T09:13:51.732Z,5.40
2018-03-26T09:16:18.126Z,5.40
2018-03-26T09:18:44.518Z,5.50
2018-03-26T09:21:11.735Z,5.80
2018-03-26T09:23:38.148Z,5.80
2018-03-26T09:26:04.607Z,6.10
2018-03-26T09:28:31.023Z,6.10
2018-03-26T09:30:57.475Z,6.00
2018-03-26T09:33:23.865Z,6.30
2018-03-26T09:35:50.467Z,6.20
2018-03-26T09:38:17.659Z,6.50
2018-03-26T09:40:44.102Z,6.50
2018-03-26T09:43:10.486Z,6.40
2018-03-26T09:45:37.624Z,6.80
2018-03-26T09:48:05.495Z,6.90
2018-03-26T09:50:33.384Z,6.70
2018-03-26T09:53:00.532Z,7.00
2018-03-26T09:55:27.668Z,7.10
2018-03-26T09:57:54.077Z,7.10
2018-03-26T10:00:21.484Z,7.20
2018-03-26T10:02:47.854Z,7.30
2018-03-26T10:05:14.321Z,7.20
2018-03-26T10:07:41.465Z,7.60
2018-03-26T10:10:07.854Z,7.50
2018-03-26T10:12:34.243Z,7.40
2018-03-26T10:15:01.344Z,7.60
2018-03-26T10:17:27.743Z,7.60
2018-03-26T10:19:54.148Z,7.90
2018-03-26T10:22:20.610Z,8.10
2018-03-26T10:24:47.867Z,8.10
2018-03-26T10:27:14.252Z,7.90
2018-03-26T10:29:41.393Z,8.00
2018-03-26T10:32:07.782Z,8.00
2018-03-26T10:34:34.182Z,8.30
2018-03-26T10:37:01.303Z,8.80
2018-03-26T10:39:27.686Z,8.80
2018-03-26T10:41:54.804Z,8.50
2018-03-26T10:44:21.197Z,8.50
2018-03-26T10:46:47.643Z,8.30
2018-03-26T10:49:14.044Z,8.20
2018-03-26T10:51:40.420Z,8.20
2018-03-26T10:54:08.290Z,8.30
2018-03-26T10:56:34.701Z,8.30
2018-03-26T10:59:01.105Z,8.60
2018-03-26T11:01:27.489Z,9.00
2018-03-26T11:03:55.372Z,9.00
2018-03-26T11:06:22.581Z,9.30
2018-03-26T11:08:48.980Z,9.20
2018-03-26T11:11:15.389Z,9.70
2018-03-26T11:13:42.509Z,9.50
2018-03-26T11:16:08.912Z,9.50
2018-03-26T11:18:35.326Z,9.20
2018-03-26T11:21:01.749Z,9.20
2018-03-26T11:23:28.884Z,9.20
2018-03-26T11:25:56.021Z,9.20
2018-03-26T11:28:23.042Z,9.20
2018-03-26T11:30:49.580Z,9.30
2018-03-26T11:33:16.060Z,9.70
2018-03-26T11:35:43.210Z,10.00
2018-03-26T11:38:10.343Z,10.00
2018-03-26T11:40:36.719Z,10.00
2018-03-26T11:43:03.108Z,10.30
2018-03-26T11:45:30.231Z,10.00
2018-03-26T11:47:57.359Z,10.40
2018-03-26T11:50:23.791Z,10.40
2018-03-26T11:52:50.208Z,10.10
2018-03-26T11:55:16.641Z,9.90
2018-03-26T11:57:43.751Z,9.80
2018-03-26T12:00:10.931Z,9.80
2018-03-26T12:02:37.348Z,9.80
2018-03-26T12:05:03.773Z,9.80
2018-03-26T12:07:30.166Z,9.70
2018-03-26T12:09:56.552Z,9.70
2018-03-26T12:12:23.816Z,9.60
2018-03-26T12:14:50.218Z,9.60
2018-03-26T12:17:16.642Z,9.90
2018-03-26T12:19:53.188Z,10.50
2018-03-26T12:22:19.556Z,10.70
2018-03-26T12:25:10.637Z,10.80
2018-03-26T12:27:49.218Z,10.80
2018-03-26T12:30:16.695Z,10.80
2018-03-26T12:32:43.165Z,10.90
2018-03-26T12:35:21.727Z,11.00
2018-03-26T12:37:48.118Z,10.40
2018-03-26T12:40:26.896Z,10.30
2018-03-26T12:42:53.316Z,10.50
2018-03-26T12:45:32.028Z,10.40
2018-03-26T12:47:58.419Z,10.30
2018-03-26T12:50:37.160Z,10.40
2018-03-26T12:53:04.331Z,10.60
2018-03-26T12:55:31.456Z,10.60
2018-03-26T12:58:10.931Z,9.80
2018-03-26T13:00:37.312Z,9.80
2018-03-26T13:03:05.252Z,9.90
2018-03-26T13:05:31.694Z,9.90
2018-03-26T13:07:58.140Z,10.10
2018-03-26T13:10:24.543Z,10.10
2018-03-26T13:12:50.948Z,9.80
2018-03-26T13:15:17.331Z,9.80
2018-03-26T13:17:43.727Z,10.00
2018-03-26T13:20:10.148Z,10.20
2018-03-26T13:22:36.552Z,10.40
2018-03-26T13:25:02.983Z,10.70
2018-03-26T13:27:29.376Z,10.80
2018-03-26T13:29:55.804Z,10.60
2018-03-26T13:32:22.211Z,10.00
2018-03-26T13:34:48.597Z,10.00
2018-03-26T13:37:15.012Z,10.00
2018-03-26T13:39:41.532Z,10.10
2018-03-26T13:42:07.920Z,9.90
2018-03-26T13:44:34.319Z,9.60
2018-03-26T13:47:00.783Z,9.50
2018-03-26T13:49:27.161Z,9.50
2018-03-26T13:51:53.547Z,9.50
2018-03-26T13:54:20.059Z,9.60
2018-03-26T13:56:46.465Z,9.50
2018-03-26T13:59:12.859Z,9.20
2018-03-26T14:01:39.992Z,9.30
2018-03-26T14:04:06.379Z,9.30
2018-03-26T14:06:32.777Z,9.50
2018-03-26T14:09:12.128Z,9.70
2018-03-26T14:11:50.878Z,9.70
2018-03-26T14:14:29.609Z,9.40
2018-03-26T14:17:08.296Z,9.50
2018-03-26T14:19:34.696Z,9.50
2018-03-26T14:22:01.843Z,9.70
2018-03-26T14:24:28.976Z,9.60
2018-03-26T14:26:56.869Z,9.40
2018-03-26T14:29:24.001Z,9.40
2018-03-26T14:31:51.134Z,9.30
2018-03-26T14:34:17.542Z,9.30
2018-03-26T14:36:43.956Z,9.50
2018-03-26T14:39:10.339Z,9.50
2018-03-26T14:41:37.209Z,9.50
2018-03-26T14:44:03.614Z,9.50
2018-03-26T14:46:30.011Z,9.30
2018-03-26T14:48:56.414Z,9.30
2018-03-26T14:51:22.793Z,9.30
2018-03-26T14:53:49.199Z,9.40
2018-03-26T14:56:15.583Z,9.40
2018-03-26T14:58:42.718Z,8.80
2018-03-26T15:01:10.097Z,8.70
2018-03-26T15:03:37.273Z,8.50
2018-03-26T15:06:03.693Z,8.40
2018-03-26T15:08:30.844Z,8.50
2018-03-26T15:10:57.951Z,8.50
2018-03-26T15:13:24.342Z,8.50
2018-03-26T15:15:50.737Z,8.50
2018-03-26T15:18:17.896Z,8.70
2018-03-26T15:20:45.028Z,8.40
2018-03-26T15:23:11.407Z,8.40
2018-03-26T15:25:37.786Z,8.20
2018-03-26T15:28:04.196Z,8.20
2018-03-26T15:30:30.576Z,8.20
2018-03-26T15:32:57.695Z,8.10
2018-03-26T15:35:24.077Z,8.10
2018-03-26T15:37:50.472Z,8.20
2018-03-26T15:40:17.603Z,8.10
2018-03-26T15:42:44.198Z,8.10
2018-03-26T15:45:10.605Z,8.10
2018-03-26T15:47:37.773Z,8.10
2018-03-26T15:50:04.217Z,8.10
2018-03-26T15:52:30.591Z,8.10
2018-03-26T15:54:58.453Z,8.10
2018-03-26T15:57:25.728Z,8.10
2018-03-26T15:59:52.907Z,8.10
2018-03-26T16:02:19.384Z,8.10
2018-03-26T16:04:45.777Z,8.10
2018-03-26T16:07:12.168Z,7.90
2018-03-26T16:09:38.561Z,7.80
2018-03-26T16:12:05.021Z,7.80
2018-03-26T16:14:32.903Z,7.50
2018-03-26T16:16:59.296Z,7.60
2018-03-26T16:19:25.706Z,7.50
2018-03-26T16:21:52.083Z,7.50
2018-03-26T16:24:18.485Z,7.50
2018-03-26T16:26:44.875Z,7.40
2018-03-26T16:29:12.000Z,7.30
2018-03-26T16:31:38.425Z,7.30
2018-03-26T16:34:04.795Z,7.30
2018-03-26T16:36:31.932Z,7.30
2018-03-26T16:38:59.061Z,7.20
2018-03-26T16:41:37.632Z,7.20
2018-03-26T16:44:04.078Z,7.10
2018-03-26T16:46:30.492Z,7.00
2018-03-26T16:48:56.896Z,7.10
2018-03-26T16:51:23.282Z,7.10
2018-03-26T16:53:49.671Z,7.20
2018-03-26T16:56:16.814Z,7.10
2018-03-26T16:58:43.959Z,7.00
2018-03-26T17:01:10.383Z,7.00
2018-03-26T17:03:37.580Z,7.10
2018-03-26T17:06:04.008Z,7.00
2018-03-26T17:08:30.407Z,7.00
2018-03-26T17:10:56.857Z,7.00
2018-03-26T17:13:23.988Z,7.00
2018-03-26T17:15:50.389Z,7.00
2018-03-26T17:18:16.776Z,7.00
2018-03-26T17:20:43.999Z,6.80
2018-03-26T17:23:10.400Z,6.80
2018-03-26T17:25:36.802Z,6.80
2018-03-26T17:28:03.319Z,6.90
2018-03-26T17:30:29.747Z,6.90
2018-03-26T17:32:57.194Z,6.90
2018-03-26T17:35:24.346Z,6.80
2018-03-26T17:37:50.736Z,6.80
2018-03-26T17:40:17.188Z,6.70
2018-03-26T17:42:43.547Z,6.80
2018-03-26T17:45:09.930Z,6.80
2018-03-26T17:47:36.385Z,6.80
2018-03-26T17:50:02.826Z,6.80
2018-03-26T17:52:29.993Z,6.60
2018-03-26T17:54:57.208Z,6.50
2018-03-26T17:57:23.624Z,6.50
2018-03-26T17:59:50.036Z,6.40
2018-03-26T18:02:16.431Z,6.40
2018-03-26T18:04:44.318Z,6.40
2018-03-26T18:07:11.452Z,6.50
2018-03-26T18:09:38.664Z,6.60
2018-03-26T18:12:05.076Z,6.60
2018-03-26T18:14:31.483Z,6.50
2018-03-26T18:16:58.652Z,6.40
2018-03-26T18:19:25.065Z,6.30
2018-03-26T18:21:52.223Z,6.30
2018-03-26T18:24:19.405Z,6.20
2018-03-26T18:26:45.848Z,6.20
2018-03-26T18:29:12.262Z,6.20
2018-03-26T18:31:38.648Z,6.20
2018-03-26T18:34:05.801Z,6.00
2018-03-26T18:36:32.989Z,6.10
2018-03-26T18:38:59.436Z,6.10
2018-03-26T18:41:25.846Z,5.90
2018-03-26T18:43:52.290Z,5.90
2018-03-26T18:46:18.711Z,5.90
2018-03-26T18:48:45.941Z,6.10
2018-03-26T18:51:13.128Z,6.20
2018-03-26T18:53:39.558Z,6.20
2018-03-26T18:56:05.958Z,6.30
2018-03-26T18:58:33.142Z,6.40
2018-03-26T19:00:59.597Z,6.30
2018-03-26T19:03:26.264Z,6.30
2018-03-26T19:05:53.438Z,6.30
2018-03-26T19:08:20.613Z,6.30
2018-03-26T19:10:47.050Z,6.30
2018-03-26T19:13:13.448Z,6.40
2018-03-26T19:15:40.612Z,6.40
2018-03-26T19:18:07.057Z,6.40
2018-03-26T19:20:33.458Z,6.40
2018-03-26T19:23:00.596Z,6.40
2018-03-26T19:25:27.752Z,6.30
2018-03-26T19:27:54.130Z,6.30
2018-03-26T19:30:20.548Z,6.30
2018-03-26T19:32:47.673Z,6.30
2018-03-26T19:35:14.061Z,6.40
2018-03-26T19:37:41.426Z,6.10
2018-03-26T19:40:07.838Z,6.00
2018-03-26T19:42:34.254Z,6.00
2018-03-26T19:45:00.685Z,6.00
2018-03-26T19:47:27.091Z,5.60
2018-03-26T19:49:54.235Z,5.30
2018-03-26T19:52:21.365Z,5.20
2018-03-26T19:54:47.716Z,5.20
2018-03-26T19:57:14.816Z,5.30
2018-03-26T19:59:41.178Z,5.30
2018-03-26T20:02:08.281Z,5.40
2018-03-26T20:04:34.691Z,5.30
2018-03-26T20:07:01.889Z,5.70
2018-03-26T20:09:28.393Z,5.60
2018-03-26T20:11:54.826Z,5.80
2018-03-26T20:14:21.299Z,5.90
2018-03-26T20:16:47.943Z,6.00
2018-03-26T20:19:14.362Z,5.90
2018-03-26T20:21:40.766Z,5.90
2018-03-26T20:24:07.197Z,5.90
2018-03-26T20:26:33.588Z,5.90
2018-03-26T20:29:00.723Z,5.90
2018-03-26T20:31:28.620Z,5.90
2018-03-26T20:33:55.795Z,6.00
2018-03-26T20:36:22.190Z,5.90
2018-03-26T20:38:49.315Z,6.00
2018-03-26T20:41:15.743Z,6.00
2018-03-26T20:43:42.136Z,6.10
2018-03-26T20:46:08.543Z,6.10
2018-03-26T20:48:35.730Z,6.00
2018-03-26T20:51:02.874Z,5.90
2018-03-26T20:53:29.307Z,5.90
2018-03-26T20:55:55.703Z,6.00
2018-03-26T20:58:22.811Z,6.00
2018-03-26T21:00:49.228Z,6.00
2018-03-26T21:03:15.615Z,6.00
2018-03-26T21:05:42.013Z,5.90
2018-03-26T21:08:08.411Z,5.90
2018-03-26T21:10:34.779Z,5.90
2018-03-26T21:13:01.206Z,6.00
2018-03-26T21:15:27.655Z,6.10
2018-03-26T21:17:54.058Z,6.10
2018-03-26T21:20:20.517Z,6.10
2018-03-26T21:22:46.913Z,6.00
2018-03-26T21:25:13.319Z,6.10
2018-03-26T21:27:40.489Z,6.00
2018-03-26T21:30:07.092Z,6.00
2018-03-26T21:32:34.245Z,6.00
2018-03-26T21:35:00.662Z,6.00
2018-03-26T21:37:27.054Z,6.00
2018-03-26T21:39:53.433Z,6.00
2018-03-26T21:42:19.823Z,5.90
2018-03-26T21:44:46.203Z,5.70
2018-03-26T21:47:13.395Z,5.70
2018-03-26T21:49:39.793Z,5.70
2018-03-26T21:52:06.187Z,5.70
2018-03-26T21:54:32.572Z,5.70
2018-03-26T21:56:59.718Z,5.70
2018-03-26T21:59:26.891Z,5.80
2018-03-26T22:01:53.314Z,5.70
2018-03-26T22:04:19.720Z,5.70
2018-03-26T22:06:46.844Z,5.90
2018-03-26T22:09:13.264Z,5.90
2018-03-26T22:11:39.703Z,5.90
2018-03-26T22:14:06.138Z,5.90
2018-03-26T22:16:32.552Z,5.90
2018-03-26T22:18:58.946Z,5.90
2018-03-26T22:21:26.127Z,5.90
2018-03-26T22:23:52.541Z,5.80
2018-03-26T22:26:18.958Z,5.90
2018-03-26T22:28:46.077Z,5.80
2018-03-26T22:31:12.471Z,5.80
2018-03-26T22:33:38.857Z,5.80
2018-03-26T22:36:05.980Z,5.80
2018-03-26T22:38:32.345Z,5.80
2018-03-26T22:40:59.528Z,5.90
2018-03-26T22:43:25.903Z,5.80
2018-03-26T22:45:52.288Z,5.90
2018-03-26T22:48:18.679Z,5.90
2018-03-26T22:50:45.811Z,5.80
2018-03-26T22:53:12.198Z,5.80
2018-03-26T22:55:38.659Z,5.90
2018-03-26T22:58:06.568Z,5.80
2018-03-26T23:00:32.988Z,5.80
2018-03-26T23:02:59.372Z,5.80
2018-03-26T23:05:25.743Z,5.80
2018-03-26T23:07:52.126Z,5.70
2018-03-26T23:10:18.517Z,5.70
2018-03-26T23:12:44.899Z,5.70
2018-03-26T23:15:11.315Z,5.70
2018-03-26T23:17:37.703Z,5.70
2018-03-26T23:20:04.188Z,5.70
2018-03-26T23:22:43.035Z,5.70
2018-03-26T23:25:09.410Z,5.70
2018-03-26T23:27:35.796Z,5.80
2018-03-26T23:30:02.461Z,5.80
2018-03-26T23:32:28.875Z,5.80
2018-03-26T23:34:55.249Z,5.80
2018-03-26T23:37:22.373Z,5.80
2018-03-26T23:39:48.755Z,5.80
2018-03-26T23:42:15.139Z,5.90
2018-03-26T23:44:41.545Z,5.90
2018-03-26T23:47:07.922Z,5.90
2018-03-26T23:49:35.051Z,5.80
2018-03-26T23:52:02.180Z,5.80
2018-03-26T23:54:28.577Z,5.80
2018-03-26T23:56:54.958Z,5.70
2018-03-26T23:59:21.365Z,5.80
